Time;durP1;ratioP1;P1;durP2;ratioP2;P2;SDS_P1;SDS_P2;PMS_P1;PMS_P2;Temp;Humidity;BMP_temperature;BMP_pressure;BME280_temperature;BME280_humidity;BME280_pressure;Samples;Min_cycle;Max_cycle;Signal;HPM_P1;HPM_P2
2022/08/13 00:02:10;;;;;;;6.07;4.03;;;665.90;1382.40;;;;;;4994204;28;20545;-79
2022/08/13 00:04:40;;;;;;;10.10;4.57;;;665.90;1382.40;;;;;;4976719;28;20039;-75
2022/08/13 00:09:33;;;;;;;15.90;6.18;;;665.80;1408.00;;;;;;4974477;28;20070;-77
2022/08/13 00:14:45;;;;;;;12.15;5.95;;;665.80;1408.00;;;;;;4974610;28;20091;-79
2022/08/13 00:17:14;;;;;;;11.73;4.90;;;665.80;1408.00;;;;;;4957313;28;20029;-79
2022/08/13 00:19:43;;;;;;;10.27;5.90;;;665.80;1408.00;;;;;;4974488;28;20031;-77
2022/08/13 00:22:09;;;;;;;8.00;5.35;;;665.80;1408.00;;;;;;4974552;28;20054;-79
2022/08/13 00:24:38;;;;;;;15.40;6.45;;;665.80;1408.00;;;;;;4973974;28;20031;-80
2022/08/13 00:27:04;;;;;;;13.23;5.50;;;665.70;1433.60;;;;;;4974433;28;20019;-78
2022/08/13 00:29:30;;;;;;;12.20;4.93;;;665.70;1433.60;;;;;;4974452;28;20035;-80
2022/08/13 00:31:56;;;;;;;11.52;4.82;;;665.60;1433.60;;;;;;4974518;28;20042;-80
2022/08/13 00:34:23;;;;;;;12.25;6.32;;;665.60;1433.60;;;;;;4974344;28;20149;-79
2022/08/13 00:36:48;;;;;;;8.30;6.13;;;665.60;1459.20;;;;;;4974177;28;20038;-77
2022/08/13 00:39:15;;;;;;;9.88;5.35;;;665.60;1459.20;;;;;;4974009;28;20031;-79
2022/08/13 00:41:45;;;;;;;20.58;5.82;;;665.60;1459.20;;;;;;4973977;28;20511;-78
2022/08/13 00:44:14;;;;;;;13.40;5.53;;;640.90;1433.60;;;;;;4957050;28;20023;-78
2022/08/13 00:46:41;;;;;;;13.45;5.25;;;640.90;1433.60;;;;;;4978129;28;20065;-79
2022/08/13 00:49:08;;;;;;;11.32;5.22;;;640.90;1433.60;;;;;;4978638;28;20030;-80
2022/08/13 00:51:37;;;;;;;12.18;5.68;;;640.80;1459.20;;;;;;4978125;28;20054;-78
2022/08/13 00:54:06;;;;;;;10.20;6.05;;;640.80;1459.20;;;;;;4978084;28;20037;-79
2022/08/13 00:56:35;;;;;;;10.70;5.75;;;640.80;1459.20;;;;;;4977986;28;20029;-79
2022/08/13 00:59:11;;;;;;;11.13;6.95;;;640.70;1459.20;;;;;;4977999;28;20022;-80
2022/08/13 01:01:44;;;;;;;;;;;640.60;1459.20;;;;;;4978305;28;20030;-77
2022/08/13 01:04:11;;;;;;;8.40;5.22;;;640.70;1459.20;;;;;;4978000;28;20283;-77
2022/08/13 01:06:37;;;;;;;11.48;5.32;;;640.60;1459.20;;;;;;4989870;28;20041;-76
2022/08/13 01:09:04;;;;;;;11.60;5.75;;;640.60;1459.20;;;;;;4978546;28;20034;-77
2022/08/13 01:11:32;;;;;;;12.63;5.68;;;640.50;1484.80;;;;;;4996837;28;20027;-76
2022/08/13 01:14:02;;;;;;;18.73;5.80;;;640.50;1484.80;;;;;;4979062;28;20022;-79
2022/08/13 01:16:36;;;;;;;12.60;5.68;;;640.50;1484.80;;;;;;4996509;28;20026;-77
2022/08/13 01:19:09;;;;;;;9.40;6.15;;;640.40;1484.80;;;;;;4996712;28;20057;-77
2022/08/13 01:21:44;;;;;;;12.35;5.88;;;640.50;1484.80;;;;;;4996466;28;20022;-78
2022/08/13 01:24:11;;;;;;;8.00;5.53;;;640.20;1484.80;;;;;;4996284;28;20018;-77
2022/08/13 01:26:39;;;;;;;7.05;5.43;;;640.10;1510.40;;;;;;4996068;28;20425;-75
2022/08/13 01:29:07;;;;;;;7.88;5.45;;;615.20;1536.00;;;;;;4996331;28;20096;-76
2022/08/13 01:31:34;;;;;;;10.35;5.53;;;615.30;1536.00;;;;;;4996270;28;20026;-76
2022/08/13 01:34:00;;;;;;;20.42;5.10;;;615.30;1561.60;;;;;;4996217;28;20472;-75
2022/08/13 01:36:29;;;;;;;8.75;5.07;;;615.00;1664.00;;;;;;4995973;28;20072;-75
2022/08/13 01:38:57;;;;;;;9.80;4.32;;;615.20;1664.00;;;;;;4996077;28;20027;-76
2022/08/13 01:41:26;;;;;;;9.25;4.60;;;615.20;1689.60;;;;;;4980042;28;20109;-74
2022/08/13 01:43:52;;;;;;;7.15;5.38;;;615.10;1715.20;;;;;;4976547;28;20023;-77
2022/08/13 01:46:18;;;;;;;11.82;5.00;;;615.30;1715.20;;;;;;4988491;28;20019;-76
2022/08/13 01:51:37;;;;;;;12.63;4.75;;;640.10;1689.60;;;;;;4982278;28;20089;-76
2022/08/13 01:54:05;;;;;;;9.73;5.23;;;640.10;1638.40;;;;;;4980406;28;20022;-77
2022/08/13 01:56:32;;;;;;;11.07;5.07;;;640.20;1638.40;;;;;;4986306;28;20018;-76
2022/08/13 01:59:01;;;;;;;12.77;4.70;;;640.10;1638.40;;;;;;4985859;28;20057;-76
2022/08/13 02:01:27;;;;;;;16.83;4.53;;;640.10;1638.40;;;;;;4985163;28;20019;-76
2022/08/13 02:03:56;;;;;;;13.85;4.55;;;640.10;1689.60;;;;;;4987014;28;20109;-77
2022/08/13 02:06:31;;;;;;;11.57;4.82;;;640.00;1715.20;;;;;;4985940;28;20476;-77
2022/08/13 02:09:03;;;;;;;19.02;4.43;;;640.00;1715.20;;;;;;4989511;28;20031;-76
2022/08/13 02:11:32;;;;;;;18.27;4.47;;;615.30;1766.40;;;;;;4986689;28;20054;-75
2022/08/13 02:14:00;;;;;;;7.15;3.65;;;615.30;1792.00;;;;;;4987000;28;20538;-75
2022/08/13 02:16:30;;;;;;;7.13;4.13;;;615.20;1843.20;;;;;;4984108;28;20046;-76
2022/08/13 02:18:56;;;;;;;7.88;3.95;;;615.30;1843.20;;;;;;4990250;28;20018;-75
2022/08/13 02:21:25;;;;;;;9.05;4.28;;;615.30;1868.80;;;;;;4988319;28;20387;-76
2022/08/13 02:23:57;;;;;;;8.23;4.18;;;615.20;1894.40;;;;;;4986904;28;20022;-75
2022/08/13 02:26:23;;;;;;;10.20;3.75;;;615.10;1920.00;;;;;;4985824;28;20015;-77
2022/08/13 02:28:54;;;;;;;10.95;4.53;;;615.00;1945.60;;;;;;4983421;28;20080;-76
2022/08/13 02:31:21;;;;;;;9.95;4.32;;;614.90;1971.20;;;;;;4988557;28;20026;-78
2022/08/13 02:33:47;;;;;;;8.52;4.50;;;614.80;1996.80;;;;;;4986028;28;20022;-76
2022/08/13 02:36:14;;;;;;;10.85;4.75;;;614.70;2048.00;;;;;;4984582;28;20033;-78
2022/08/13 02:38:42;;;;;;;11.07;4.18;;;614.70;2048.00;;;;;;4985821;28;20049;-77
2022/08/13 02:43:53;;;;;;;19.70;6.15;;;614.80;2073.60;;;;;;4987011;28;20052;-76
2022/08/13 02:46:21;;;;;;;8.38;5.88;;;589.70;2124.80;;;;;;4984706;28;20066;-80
2022/08/13 02:48:48;;;;;;;13.40;5.13;;;614.40;2150.40;;;;;;4985043;28;20018;-76
2022/08/13 02:51:14;;;;;;;11.27;4.95;;;614.50;2150.40;;;;;;4985984;28;20113;-77
2022/08/13 02:53:42;;;;;;;9.75;4.63;;;614.50;2176.00;;;;;;4982844;28;20035;-76
2022/08/13 02:56:08;;;;;;;12.43;4.93;;;614.40;2201.60;;;;;;4983268;28;20023;-77
2022/08/13 02:58:39;;;;;;;6.68;4.90;;;589.70;2252.80;;;;;;4984014;28;20054;-75
2022/08/13 03:01:05;;;;;;;9.63;5.15;;;589.50;2252.80;;;;;;4967466;28;20022;-76
2022/08/13 03:03:31;;;;;;;10.07;4.45;;;589.50;2278.40;;;;;;4983594;28;20081;-76
2022/08/13 03:05:58;;;;;;;10.48;4.68;;;589.30;2355.20;;;;;;4985179;28;20034;-75
2022/08/13 03:08:28;;;;;;;5.78;4.47;;;589.30;2380.80;;;;;;4983938;28;20054;-75
2022/08/13 03:10:55;;;;;;;9.02;4.75;;;589.30;2380.80;;;;;;4965624;28;20049;-78
2022/08/13 03:13:25;;;;;;;9.48;4.75;;;589.40;2380.80;;;;;;4984292;28;20014;-75
2022/08/13 03:15:56;;;;;;;6.45;4.30;;;589.40;2380.80;;;;;;4967779;28;20022;-75
2022/08/13 03:18:24;;;;;;;9.77;4.57;;;589.60;2355.20;;;;;;4985436;28;20025;-78
2022/08/13 03:20:50;;;;;;;5.47;3.78;;;589.70;2355.20;;;;;;4982482;28;20506;-75
2022/08/13 03:23:17;;;;;;;6.13;4.22;;;589.70;2329.60;;;;;;4990876;28;20105;-75
2022/08/13 03:25:44;;;;;;;9.55;4.55;;;589.70;2329.60;;;;;;4983439;28;20022;-76
2022/08/13 03:28:10;;;;;;;7.28;3.88;;;589.70;2304.00;;;;;;4982697;28;20082;-75
2022/08/13 03:30:36;;;;;;;4.97;3.90;;;589.70;2329.60;;;;;;4991632;28;20039;-77
2022/08/13 03:33:13;;;;;;;7.35;3.78;;;589.70;2329.60;;;;;;4994666;28;20057;-76
2022/08/13 03:35:40;;;;;;;7.50;3.75;;;589.70;2304.00;;;;;;4977050;28;20034;-78
2022/08/13 03:38:08;;;;;;;8.15;4.35;;;589.70;2304.00;;;;;;4993135;28;20030;-77
2022/08/13 03:43:20;;;;;;;6.55;3.65;;;589.60;2329.60;;;;;;4994831;28;20518;-77
2022/08/13 03:45:46;;;;;;;8.77;4.57;;;589.50;2329.60;;;;;;4994436;28;20030;-76
2022/08/13 03:48:13;;;;;;;6.70;4.47;;;589.60;2304.00;;;;;;4994208;28;20408;-78
2022/08/13 03:50:40;;;;;;;7.90;4.13;;;589.70;2304.00;;;;;;4994298;28;20475;-77
2022/08/13 03:53:07;;;;;;;12.85;4.28;;;589.70;2278.40;;;;;;4994091;28;20514;-75
2022/08/13 03:55:37;;;;;;;6.45;4.53;;;589.60;2304.00;;;;;;5000250;28;20100;-77
2022/08/13 03:58:05;;;;;;;10.10;4.13;;;589.60;2278.40;;;;;;5003027;28;20025;-76
2022/08/13 04:00:38;;;;;;;10.75;5.35;;;589.70;2278.40;;;;;;5003601;28;20080;-76
2022/08/13 04:03:28;;;;;;;6.80;4.65;;;589.70;2252.80;;;;;;5002052;28;20021;-75
2022/08/13 04:06:06;;;;;;;6.78;4.85;;;589.70;2252.80;;;;;;5000779;28;20018;-75
2022/08/13 04:08:35;;;;;;;8.90;4.75;;;589.60;2304.00;;;;;;4994989;28;20026;-77
2022/08/13 04:11:03;;;;;;;9.00;5.20;;;589.70;2278.40;;;;;;4995642;28;20487;-77
2022/08/13 04:13:36;;;;;;;9.13;5.40;;;589.70;2252.80;;;;;;4989419;28;20026;-76
2022/08/13 04:16:06;;;;;;;9.00;4.70;;;589.70;2252.80;;;;;;4968451;28;20041;-78
2022/08/13 04:18:35;;;;;;;8.18;4.40;;;589.70;2278.40;;;;;;4981718;28;20022;-76
2022/08/13 04:21:03;;;;;;;7.78;4.80;;;589.70;2304.00;;;;;;4983711;28;20445;-76
2022/08/13 04:23:29;;;;;;;14.15;5.57;;;589.50;2329.60;;;;;;4987921;28;20070;-77
2022/08/13 04:25:55;;;;;;;7.78;4.80;;;589.50;2329.60;;;;;;4983111;28;20498;-77
2022/08/13 04:28:23;;;;;;;6.75;4.78;;;589.30;2380.80;;;;;;4985448;28;20023;-86
2022/08/13 04:30:49;;;;;;;8.75;4.65;;;589.60;2329.60;;;;;;4972799;28;20034;-81
2022/08/13 04:33:17;;;;;;;7.93;4.53;;;589.70;2304.00;;;;;;4981712;28;20427;-76
2022/08/13 04:35:45;;;;;;;8.95;4.20;;;614.50;2304.00;;;;;;4984448;28;20502;-81
2022/08/13 04:38:12;;;;;;;8.43;4.65;;;589.60;2304.00;;;;;;4985565;28;20061;-80
2022/08/13 04:40:44;;;;;;;8.98;3.92;;;589.70;2304.00;;;;;;4982362;28;20101;-82
2022/08/13 04:43:11;;;;;;;9.35;4.15;;;589.60;2304.00;;;;;;4984110;28;20026;-83
2022/08/13 04:45:38;;;;;;;6.05;4.50;;;589.60;2329.60;;;;;;4989712;28;20033;-77
2022/08/13 04:48:10;;;;;;;7.97;4.15;;;589.50;2329.60;;;;;;4985730;28;20026;-78
2022/08/13 04:50:37;;;;;;;6.10;3.78;;;589.50;2329.60;;;;;;4984093;28;20088;-83
2022/08/13 04:53:23;;;;;;;8.05;4.03;;;589.20;2355.20;;;;;;4985925;28;20018;-84
2022/08/13 04:55:49;;;;;;;8.45;4.93;;;589.50;2406.40;;;;;;5006502;28;20038;-80
2022/08/13 04:58:15;;;;;;;8.05;4.53;;;589.30;2380.80;;;;;;4982937;28;20029;-76
2022/08/13 05:00:44;;;;;;;7.07;3.70;;;589.40;2355.20;;;;;;4986856;28;20187;-74
2022/08/13 05:03:15;;;;;;;6.72;4.15;;;589.40;2355.20;;;;;;4983914;28;20023;-79
2022/08/13 05:05:44;;;;;;;6.07;3.80;;;589.30;2406.40;;;;;;4966678;28;20173;-77
2022/08/13 05:08:11;;;;;;;8.50;3.58;;;589.10;2406.40;;;;;;4985900;28;20034;-77
2022/08/13 05:10:39;;;;;;;7.18;4.03;;;589.20;2380.80;;;;;;4967580;28;20128;-78
2022/08/13 05:13:30;;;;;;;9.90;3.58;;;589.10;2355.20;;;;;;4986508;28;20015;-76
2022/08/13 05:16:01;;;;;;;14.45;4.30;;;589.30;2304.00;;;;;;4996852;28;20030;-78
2022/08/13 05:18:29;;;;;;;6.72;3.45;;;589.30;2329.60;;;;;;4998690;28;20025;-85
2022/08/13 05:20:59;;;;;;;7.00;3.40;;;589.40;2304.00;;;;;;4998126;28;20463;-85
2022/08/13 05:23:25;;;;;;;7.45;3.60;;;589.40;2278.40;;;;;;4996587;28;20461;-83
2022/08/13 05:25:52;;;;;;;9.52;3.20;;;589.40;2278.40;;;;;;4972288;28;20040;-82
2022/08/13 05:28:19;;;;;;;7.30;3.35;;;589.30;2304.00;;;;;;4982352;28;20023;-78
2022/08/13 05:30:49;;;;;;;7.65;3.70;;;589.30;2278.40;;;;;;4983586;28;20046;-77
2022/08/13 05:33:18;;;;;;;6.88;3.22;;;589.50;2252.80;;;;;;4986126;28;20021;-80
2022/08/13 05:35:45;;;;;;;11.13;3.40;;;589.70;2201.60;;;;;;4985687;28;20039;-78
2022/08/13 05:38:12;;;;;;;4.47;2.90;;;614.40;2150.40;;;;;;4990391;28;20027;-75
2022/08/13 05:40:38;;;;;;;7.43;3.53;;;589.70;2176.00;;;;;;4974612;28;20031;-77
2022/08/13 05:43:33;;;;;;;5.97;3.28;;;589.70;2176.00;;;;;;5003340;28;20101;-80
2022/08/13 05:46:09;;;;;;;4.65;3.35;;;614.60;2124.80;;;;;;5011701;28;20054;-81
2022/08/13 05:48:39;;;;;;;7.70;3.47;;;614.60;2124.80;;;;;;5016149;28;20018;-80
2022/08/13 05:51:08;;;;;;;6.25;3.10;;;614.60;2124.80;;;;;;4982643;28;20552;-78
2022/08/13 05:53:37;;;;;;;6.18;3.47;;;614.70;2099.20;;;;;;4979019;28;20026;-78
2022/08/13 05:56:08;;;;;;;4.97;3.60;;;614.80;2099.20;;;;;;4979775;28;20030;-78
2022/08/13 05:58:34;;;;;;;9.15;3.35;;;614.80;2099.20;;;;;;5008634;28;20033;-79
2022/08/13 06:03:44;;;;;;;5.13;3.55;;;614.80;2099.20;;;;;;4996132;28;20396;-80
2022/08/13 06:06:14;;;;;;;9.50;3.50;;;615.00;2099.20;;;;;;4978607;28;20030;-78
2022/08/13 06:08:42;;;;;;;5.93;3.35;;;615.00;2099.20;;;;;;4996358;28;20100;-80
2022/08/13 06:11:15;;;;;;;9.30;3.47;;;615.10;2073.60;;;;;;4978653;28;20042;-81
2022/08/13 06:13:43;;;;;;;8.02;3.33;;;615.10;2073.60;;;;;;4996050;28;20026;-80
2022/08/13 06:16:11;;;;;;;9.93;3.28;;;615.10;2048.00;;;;;;4978717;28;20398;-79
2022/08/13 06:18:49;;;;;;;7.78;3.72;;;615.20;2048.00;;;;;;4995834;28;20026;-79
2022/08/13 06:21:17;;;;;;;6.38;3.38;;;615.10;2073.60;;;;;;4995985;28;20037;-80
2022/08/13 06:23:45;;;;;;;6.65;3.58;;;615.20;2048.00;;;;;;4995483;28;20027;-80
2022/08/13 06:26:14;;;;;;;8.45;3.45;;;615.20;2048.00;;;;;;4978464;28;20025;-80
2022/08/13 06:28:41;;;;;;;5.93;3.53;;;640.00;2022.40;;;;;;4978591;28;20029;-78
2022/08/13 06:31:09;;;;;;;4.88;3.20;;;640.00;2022.40;;;;;;4978011;28;20376;-78
2022/08/13 06:33:36;;;;;;;7.22;3.67;;;640.00;1996.80;;;;;;4995706;28;20451;-79
2022/08/13 06:36:06;;;;;;;6.60;3.25;;;640.00;2022.40;;;;;;4991603;28;20027;-78
2022/08/13 06:38:43;;;;;;;6.03;3.28;;;640.10;1996.80;;;;;;4994370;28;20487;-78
2022/08/13 06:41:10;;;;;;;4.05;3.10;;;640.20;1996.80;;;;;;4995034;28;20053;-78
2022/08/13 06:43:43;;;;;;;8.25;3.78;;;640.30;1996.80;;;;;;4995305;28;20030;-76
2022/08/13 06:46:11;;;;;;;6.22;3.75;;;640.40;1945.60;;;;;;4995558;28;20022;-78
2022/08/13 06:48:39;;;;;;;8.02;4.15;;;640.50;2048.00;;;;;;4995372;28;20034;-79
2022/08/13 06:51:07;;;;;;;10.15;4.22;;;640.40;2124.80;;;;;;4977678;28;20065;-78
2022/08/13 06:53:37;;;;;;;10.30;4.40;;;640.40;2150.40;;;;;;4977634;28;20424;-78
2022/08/13 06:56:11;;;;;;;6.45;4.72;;;640.10;2201.60;;;;;;4978028;28;20113;-77
2022/08/13 06:58:37;;;;;;;6.22;3.95;;;640.10;2252.80;;;;;;4981073;28;20026;-78
2022/08/13 07:01:03;;;;;;;6.07;4.50;;;640.10;2252.80;;;;;;4979949;28;20034;-80
2022/08/13 07:03:32;;;;;;;7.05;4.70;;;640.10;2278.40;;;;;;4995234;28;20024;-81
2022/08/13 07:05:58;;;;;;;6.68;4.88;;;640.00;2278.40;;;;;;4977676;28;20037;-75
2022/08/13 07:08:30;;;;;;;9.57;5.00;;;640.00;2304.00;;;;;;4995096;28;20025;-81
2022/08/13 07:13:43;;;;;;;10.27;4.95;;;615.20;2355.20;;;;;;4995146;28;20080;-80
2022/08/13 07:16:11;;;;;;;10.63;4.75;;;615.20;2380.80;;;;;;4977299;28;20476;-79
2022/08/13 07:18:37;;;;;;;7.68;4.72;;;615.20;2380.80;;;;;;4994728;28;20026;-79
2022/08/13 07:21:09;;;;;;;9.05;4.55;;;615.20;2355.20;;;;;;4994578;28;20034;-81
2022/08/13 07:23:39;;;;;;;6.72;4.75;;;615.10;2432.00;;;;;;4993559;28;20479;-77
2022/08/13 07:26:06;;;;;;;9.93;5.13;;;615.00;2432.00;;;;;;4994796;28;20022;-76
2022/08/13 07:28:33;;;;;;;10.77;4.22;;;615.00;2432.00;;;;;;4994765;28;20062;-79
2022/08/13 07:31:00;;;;;;;6.35;4.78;;;615.10;2432.00;;;;;;4994522;28;20031;-79
2022/08/13 07:33:26;;;;;;;11.98;4.47;;;614.90;2432.00;;;;;;4994593;28;20065;-80
2022/08/13 07:35:53;;;;;;;6.43;4.57;;;614.90;2432.00;;;;;;4994706;28;20026;-78
2022/08/13 07:38:19;;;;;;;8.05;4.60;;;614.80;2432.00;;;;;;4994665;28;20019;-78
2022/08/13 07:40:50;;;;;;;10.30;4.60;;;614.70;2432.00;;;;;;4994447;28;20030;-81
2022/08/13 07:43:19;;;;;;;8.73;5.43;;;614.70;2432.00;;;;;;4977149;28;20488;-76
2022/08/13 07:46:05;;;;;;;20.33;5.20;;;614.60;2432.00;;;;;;4994581;28;20014;-78
2022/08/13 07:48:32;;;;;;;10.82;4.60;;;614.70;2432.00;;;;;;4994431;28;20436;-80
2022/08/13 07:51:01;;;;;;;11.70;4.70;;;614.70;2432.00;;;;;;4994254;28;20484;-78
2022/08/13 07:53:28;;;;;;;7.10;4.68;;;614.70;2432.00;;;;;;4994295;28;20060;-81
2022/08/13 07:55:55;;;;;;;10.05;4.65;;;614.70;2432.00;;;;;;4976150;28;20030;-79
2022/08/13 07:58:27;;;;;;;12.07;4.82;;;614.70;2432.00;;;;;;4976650;28;20029;-79
2022/08/13 08:00:59;;;;;;;8.88;5.13;;;614.70;2432.00;;;;;;4976633;28;20066;-77
2022/08/13 08:03:37;;;;;;;7.75;4.60;;;614.80;2432.00;;;;;;4976785;28;20022;-80
2022/08/13 08:06:05;;;;;;;8.38;4.88;;;614.90;2432.00;;;;;;4993992;28;20030;-77
2022/08/13 08:08:33;;;;;;;12.43;5.28;;;614.80;2432.00;;;;;;4994001;28;20109;-79
2022/08/13 08:11:01;;;;;;;10.95;4.63;;;614.80;2432.00;;;;;;4993865;28;20034;-80
2022/08/13 08:13:31;;;;;;;16.58;4.60;;;614.80;2432.00;;;;;;4993651;28;20093;-76
2022/08/13 08:15:57;;;;;;;8.77;4.95;;;614.80;2432.00;;;;;;4993859;28;20022;-77
2022/08/13 08:18:22;;;;;;;10.60;5.30;;;614.80;2432.00;;;;;;4993823;28;20030;-83
2022/08/13 08:20:48;;;;;;;5.95;4.38;;;614.70;2432.00;;;;;;4993874;28;20031;-78
2022/08/13 08:23:16;;;;;;;7.10;5.22;;;614.60;2432.00;;;;;;4993673;28;20018;-76
2022/08/13 08:25:43;;;;;;;6.95;4.50;;;614.60;2432.00;;;;;;4993879;28;20037;-80
2022/08/13 08:28:10;;;;;;;6.93;4.45;;;614.60;2432.00;;;;;;4976337;28;20073;-76
2022/08/13 08:30:39;;;;;;;7.72;5.65;;;614.70;2432.00;;;;;;4993637;28;20511;-74
2022/08/13 08:33:06;;;;;;;12.38;4.80;;;614.70;2432.00;;;;;;4976155;28;20389;-77
2022/08/13 08:35:33;;;;;;;9.40;4.80;;;614.70;2432.00;;;;;;4993585;28;20038;-78
2022/08/13 08:43:34;;;;;;;10.02;4.25;;;614.60;2432.00;;;;;;4993967;28;20041;-80
2022/08/13 08:46:05;;;;;;;7.25;4.68;;;614.50;2432.00;;;;;;4976334;28;20030;-81
2022/08/13 08:48:32;;;;;;;8.55;5.63;;;614.50;2432.00;;;;;;4976113;28;20096;-79
2022/08/13 08:51:01;;;;;;;8.30;4.75;;;614.40;2432.00;;;;;;4976044;28;20038;-79
2022/08/13 08:53:28;;;;;;;6.72;4.10;;;614.50;2432.00;;;;;;4993614;28;20014;-80
2022/08/13 08:55:55;;;;;;;12.63;5.93;;;614.50;2432.00;;;;;;4993656;28;20453;-81
2022/08/13 08:58:22;;;;;;;6.30;4.78;;;614.50;2432.00;;;;;;4976093;28;20027;-80
2022/08/13 09:00:49;;;;;;;6.93;4.43;;;614.60;2432.00;;;;;;4976239;28;20034;-82
2022/08/13 09:03:19;;;;;;;8.40;5.22;;;614.50;2432.00;;;;;;4976337;28;20452;-82
2022/08/13 09:05:48;;;;;;;7.72;4.32;;;589.70;2432.00;;;;;;4977266;28;20058;-82
2022/08/13 09:08:20;;;;;;;8.75;4.65;;;589.70;2432.00;;;;;;4979832;28;20100;-81
2022/08/13 09:10:48;;;;;;;9.50;5.13;;;589.60;2432.00;;;;;;4995725;28;20038;-81
2022/08/13 09:13:19;;;;;;;11.48;5.03;;;589.50;2432.00;;;;;;4979867;28;20030;-82
2022/08/13 09:15:50;;;;;;;6.75;4.65;;;589.40;2432.00;;;;;;4996432;28;20476;-82
2022/08/13 09:18:19;;;;;;;6.97;4.70;;;589.50;2432.00;;;;;;4979949;28;20113;-83
2022/08/13 09:20:45;;;;;;;8.15;4.75;;;589.60;2432.00;;;;;;4995940;28;20113;-79
2022/08/13 09:23:13;;;;;;;5.68;4.65;;;589.60;2432.00;;;;;;4997135;28;20044;-80
2022/08/13 09:25:43;;;;;;;6.47;4.45;;;589.60;2432.00;;;;;;4979536;28;20125;-82
2022/08/13 09:28:09;;;;;;;8.43;5.00;;;589.60;2432.00;;;;;;4996817;28;20021;-80
2022/08/13 09:30:36;;;;;;;6.55;4.65;;;589.60;2432.00;;;;;;4996774;28;20030;-79
2022/08/13 09:33:03;;;;;;;6.82;4.70;;;589.60;2432.00;;;;;;4979655;28;20034;-79
2022/08/13 09:35:31;;;;;;;9.75;4.82;;;589.50;2432.00;;;;;;4985736;28;20108;-80
2022/08/13 09:37:58;;;;;;;9.60;5.03;;;589.40;2432.00;;;;;;4984177;28;20117;-82
2022/08/13 09:40:29;;;;;;;6.70;4.97;;;589.40;2432.00;;;;;;4988834;28;20030;-81
2022/08/13 09:43:22;;;;;;;9.35;5.32;;;589.40;2432.00;;;;;;4992526;28;20039;-78
2022/08/13 09:45:48;;;;;;;12.60;5.43;;;589.50;2432.00;;;;;;4985152;28;20077;-78
2022/08/13 09:48:15;;;;;;;9.45;4.97;;;589.40;2432.00;;;;;;4988979;28;20053;-82
2022/08/13 09:50:41;;;;;;;7.45;5.05;;;589.50;2432.00;;;;;;4985410;28;20488;-78
2022/08/13 09:53:08;;;;;;;6.43;4.93;;;589.50;2432.00;;;;;;4974939;28;20033;-79
2022/08/13 09:55:37;;;;;;;7.30;5.57;;;589.60;2432.00;;;;;;4995094;28;20030;-79
2022/08/13 09:58:04;;;;;;;6.20;4.78;;;589.60;2432.00;;;;;;4969905;28;20031;-84
2022/08/13 10:00:33;;;;;;;8.82;5.65;;;589.60;2432.00;;;;;;4979972;28;20038;-80
2022/08/13 10:03:01;;;;;;;9.10;5.45;;;589.60;2432.00;;;;;;4972713;28;20397;-79
2022/08/13 10:05:35;;;;;;;7.03;5.43;;;589.60;2432.00;;;;;;4987902;28;20034;-76
2022/08/13 10:08:06;;;;;;;7.40;5.30;;;589.60;2432.00;;;;;;4987433;28;20023;-77
2022/08/13 10:10:33;;;;;;;8.15;5.55;;;589.60;2432.00;;;;;;4987683;28;20472;-80
2022/08/13 10:13:00;;;;;;;10.75;5.60;;;589.50;2432.00;;;;;;4987739;28;20035;-85
2022/08/13 10:15:29;;;;;;;9.20;6.20;;;589.50;2432.00;;;;;;4972003;28;20026;-79
2022/08/13 10:18:02;;;;;;;10.85;5.70;;;589.60;2432.00;;;;;;4981354;28;20082;-77
2022/08/13 10:20:29;;;;;;;8.57;5.90;;;589.60;2432.00;;;;;;4977400;28;21473;-77
2022/08/13 10:22:59;;;;;;;8.15;5.22;;;589.50;2432.00;;;;;;4985324;28;20022;-80
2022/08/13 10:25:26;;;;;;;8.20;5.43;;;589.20;2432.00;;;;;;4978190;28;20026;-75
2022/08/13 10:27:52;;;;;;;6.20;4.85;;;589.30;2432.00;;;;;;4977307;28;20542;-79
2022/08/13 10:30:21;;;;;;;7.90;4.45;;;589.20;2432.00;;;;;;5003828;28;20088;-84
2022/08/13 10:32:47;;;;;;;7.20;5.13;;;589.30;2432.00;;;;;;4994647;28;20030;-80
2022/08/13 10:35:17;;;;;;;8.35;5.07;;;589.30;2432.00;;;;;;4986976;28;20031;-83
2022/08/13 10:37:49;;;;;;;7.05;5.30;;;589.20;2432.00;;;;;;4989212;28;20136;-85
2022/08/13 10:40:15;;;;;;;8.00;4.85;;;589.40;2432.00;;;;;;4982438;28;20496;-86
2022/08/13 10:42:44;;;;;;;9.18;4.68;;;589.40;2432.00;;;;;;4967068;28;20129;-81
2022/08/13 10:45:14;;;;;;;11.43;5.45;;;589.50;2432.00;;;;;;4987154;28;20018;-83
2022/08/13 10:47:47;;;;;;;9.93;4.65;;;589.50;2432.00;;;;;;4981995;28;20033;-83
2022/08/13 10:50:15;;;;;;;8.63;4.90;;;589.40;2432.00;;;;;;4959258;28;20042;-84
2022/08/13 10:52:41;;;;;;;12.10;5.00;;;589.50;2432.00;;;;;;4969862;28;20113;-83
2022/08/13 10:55:11;;;;;;;6.20;4.90;;;589.60;2432.00;;;;;;4978714;28;20026;-84
2022/08/13 10:57:43;;;;;;;8.15;5.28;;;589.50;2432.00;;;;;;4978220;28;20062;-83
2022/08/13 11:00:12;;;;;;;16.20;8.10;;;589.40;2432.00;;;;;;4992817;28;20137;-78
2022/08/13 11:02:38;;;;;;;11.65;7.10;;;589.40;2432.00;;;;;;4993131;28;20059;-79
2022/08/13 11:05:06;;;;;;;8.52;5.35;;;589.30;2432.00;;;;;;4995033;28;20034;-81
2022/08/13 11:07:33;;;;;;;8.68;4.97;;;589.20;2432.00;;;;;;4977667;28;20038;-77
2022/08/13 11:09:59;;;;;;;8.48;5.20;;;589.30;2432.00;;;;;;4977477;28;20041;-78
2022/08/13 11:12:25;;;;;;;10.25;5.57;;;589.30;2432.00;;;;;;4977284;28;20031;-78
2022/08/13 11:14:51;;;;;;;8.93;5.32;;;589.30;2432.00;;;;;;4994705;28;20053;-77
2022/08/13 11:17:17;;;;;;;10.63;5.68;;;589.20;2432.00;;;;;;4994743;28;20532;-76
2022/08/13 11:19:48;;;;;;;11.57;6.22;;;589.10;2432.00;;;;;;4977268;28;20039;-76
2022/08/13 11:22:18;;;;;;;12.70;6.60;;;589.20;2432.00;;;;;;4987544;28;20505;-78
2022/08/13 11:24:44;;;;;;;7.70;5.63;;;589.30;2432.00;;;;;;4994726;28;20022;-79
2022/08/13 11:27:11;;;;;;;10.00;6.22;;;589.30;2432.00;;;;;;4994807;28;20046;-77
2022/08/13 11:29:37;;;;;;;9.23;5.68;;;589.30;2432.00;;;;;;4958616;28;20034;-79
2022/08/13 11:32:04;;;;;;;7.70;5.75;;;589.30;2432.00;;;;;;4976683;28;20113;-76
2022/08/13 11:34:30;;;;;;;9.73;7.32;;;589.10;2432.00;;;;;;4970041;28;20404;-76
2022/08/13 11:36:56;;;;;;;11.95;6.55;;;589.20;2432.00;;;;;;4974749;28;20473;-75
2022/08/13 11:39:23;;;;;;;9.63;6.13;;;589.30;2432.00;;;;;;4974611;28;20046;-79
2022/08/13 11:41:49;;;;;;;9.00;6.78;;;589.30;2432.00;;;;;;4974813;28;20473;-76
2022/08/13 11:44:16;;;;;;;13.07;6.78;;;589.30;2432.00;;;;;;4973409;28;20049;-77
2022/08/13 11:46:42;;;;;;;7.93;5.75;;;589.30;2432.00;;;;;;4994178;28;20019;-76
2022/08/13 11:49:07;;;;;;;8.32;6.25;;;589.20;2432.00;;;;;;4977216;28;20164;-78
2022/08/13 11:51:33;;;;;;;10.25;6.50;;;589.30;2432.00;;;;;;4994057;28;20042;-76
2022/08/13 11:53:59;;;;;;;8.32;5.45;;;589.30;2432.00;;;;;;4994219;28;20022;-77
2022/08/13 11:56:25;;;;;;;8.80;6.18;;;589.40;2432.00;;;;;;4976604;28;20042;-77
2022/08/13 11:58:55;;;;;;;8.00;5.90;;;589.30;2432.00;;;;;;4994248;28;20113;-79
2022/08/13 12:01:22;;;;;;;8.85;6.20;;;589.40;2432.00;;;;;;4977460;28;20026;-76
2022/08/13 12:03:48;;;;;;;8.15;6.00;;;589.40;2432.00;;;;;;4974730;28;20031;-78
2022/08/13 12:06:14;;;;;;;8.52;5.45;;;589.40;2432.00;;;;;;4974615;28;20477;-77
2022/08/13 12:08:40;;;;;;;8.77;6.10;;;589.40;2432.00;;;;;;4974494;28;20035;-76
2022/08/13 12:11:06;;;;;;;11.75;5.88;;;589.40;2432.00;;;;;;4974328;28;20035;-77
2022/08/13 12:13:32;;;;;;;8.95;5.82;;;589.40;2432.00;;;;;;4957074;28;20037;-80
2022/08/13 12:15:58;;;;;;;12.07;7.05;;;589.40;2432.00;;;;;;4972986;28;20073;-77
2022/08/13 12:18:23;;;;;;;8.52;6.40;;;589.50;2432.00;;;;;;4974797;28;20022;-77
2022/08/13 12:20:49;;;;;;;12.00;6.60;;;589.50;2432.00;;;;;;4974444;28;20023;-78
2022/08/13 12:23:15;;;;;;;9.35;5.85;;;589.40;2432.00;;;;;;4974271;28;20031;-74
2022/08/13 12:25:41;;;;;;;13.00;7.85;;;589.40;2432.00;;;;;;4974169;28;20063;-80
2022/08/13 12:28:08;;;;;;;8.93;6.68;;;589.40;2432.00;;;;;;4974341;28;20507;-79
2022/08/13 12:30:37;;;;;;;11.23;6.40;;;589.40;2432.00;;;;;;4974052;28;20035;-76
2022/08/13 12:33:03;;;;;;;8.18;6.50;;;589.30;2432.00;;;;;;4974420;28;20030;-76
2022/08/13 12:35:29;;;;;;;11.18;6.85;;;589.50;2432.00;;;;;;4990653;28;20085;-78
2022/08/13 12:37:55;;;;;;;8.40;6.85;;;589.40;2432.00;;;;;;4993681;28;20046;-82
2022/08/13 12:40:21;;;;;;;8.07;6.30;;;589.30;2432.00;;;;;;4993628;28;20027;-78
2022/08/13 12:42:46;;;;;;;10.30;6.82;;;589.30;2432.00;;;;;;4979612;28;20073;-76
2022/08/13 12:45:14;;;;;;;12.00;6.45;;;589.10;2432.00;;;;;;4979966;28;20022;-77
2022/08/13 12:47:44;;;;;;;10.43;7.03;;;589.20;2432.00;;;;;;4979717;28;20101;-78